createdAt,value
2023-05-09T00:01:44.339Z,15.60
2023-05-09T00:04:11.611Z,15.70
2023-05-09T00:06:42.118Z,15.70
2023-05-09T00:09:10.463Z,15.70
2023-05-09T00:11:37.792Z,15.60
2023-05-09T00:14:05.485Z,15.50
2023-05-09T00:16:33.442Z,15.40
2023-05-09T00:19:05.851Z,15.60
2023-05-09T00:21:37.909Z,15.60
2023-05-09T00:24:06.200Z,15.50
2023-05-09T00:26:34.458Z,15.40
2023-05-09T00:29:03.428Z,15.40
2023-05-09T00:34:48.231Z,15.60
2023-05-09T00:37:28.163Z,15.40
2023-05-09T00:39:59.812Z,15.50
2023-05-09T00:42:27.527Z,15.40
2023-05-09T00:45:07.235Z,15.50
2023-05-09T00:47:36.935Z,15.40
2023-05-09T00:50:19.816Z,15.40
2023-05-09T00:52:47.065Z,15.40
2023-05-09T00:55:16.532Z,15.50
2023-05-09T00:57:46.475Z,15.30
2023-05-09T01:00:15.006Z,15.40
2023-05-09T01:02:51.902Z,15.50
2023-05-09T01:05:20.160Z,15.50
2023-05-09T01:07:52.832Z,15.50
2023-05-09T01:10:47.197Z,15.50
2023-05-09T01:13:41.712Z,15.40
2023-05-09T01:16:23.887Z,15.40
2023-05-09T01:19:10.923Z,15.40
2023-05-09T01:21:41.481Z,15.30
2023-05-09T01:24:09.534Z,15.40
2023-05-09T01:27:16.508Z,15.30
2023-05-09T01:29:48.371Z,15.30
2023-05-09T01:32:20.083Z,15.30
2023-05-09T01:34:50.271Z,15.20
2023-05-09T01:37:21.109Z,15.20
2023-05-09T01:39:53.379Z,15.30
2023-05-09T01:42:24.623Z,15.30
2023-05-09T01:44:53.700Z,15.30
2023-05-09T01:47:24.101Z,15.30
2023-05-09T01:49:52.905Z,15.40
2023-05-09T01:52:23.607Z,15.40
2023-05-09T01:54:55.235Z,15.30
2023-05-09T01:57:26.465Z,15.30
2023-05-09T01:59:54.607Z,15.40
2023-05-09T02:02:30.962Z,15.40
2023-05-09T02:05:17.445Z,15.50
2023-05-09T02:07:47.506Z,15.60
2023-05-09T02:10:17.260Z,15.50
2023-05-09T02:12:51.931Z,15.40
2023-05-09T02:15:21.787Z,15.40
2023-05-09T02:17:49.205Z,15.50
2023-05-09T02:20:16.604Z,15.40
2023-05-09T02:25:29.586Z,15.40
2023-05-09T02:28:14.570Z,15.40
2023-05-09T02:33:54.291Z,15.30
2023-05-09T02:36:48.442Z,15.30
2023-05-09T02:39:19.637Z,15.30
2023-05-09T02:42:03.204Z,15.30
2023-05-09T02:44:33.014Z,15.20
2023-05-09T02:47:00.720Z,15.20
2023-05-09T02:49:32.509Z,15.10
2023-05-09T02:52:01.993Z,15.10
2023-05-09T02:54:30.421Z,15.00
2023-05-09T02:56:57.764Z,15.10
2023-05-09T02:59:26.863Z,15.00
2023-05-09T03:02:07.914Z,15.10
2023-05-09T03:07:33.601Z,15.10
2023-05-09T03:10:00.779Z,15.30
2023-05-09T03:12:34.864Z,15.10
2023-05-09T03:15:02.350Z,15.20
2023-05-09T03:17:32.993Z,15.10
2023-05-09T03:20:03.242Z,15.00
2023-05-09T03:25:13.019Z,14.90
2023-05-09T03:27:40.548Z,14.90
2023-05-09T03:30:08.518Z,14.90
2023-05-09T03:32:41.041Z,14.90
2023-05-09T03:35:08.592Z,14.80
2023-05-09T03:37:35.915Z,14.80
2023-05-09T03:42:44.976Z,14.80
2023-05-09T03:45:12.500Z,14.70
2023-05-09T03:47:39.879Z,14.90
2023-05-09T03:50:07.717Z,14.80
2023-05-09T03:52:35.129Z,14.70
2023-05-09T03:55:02.276Z,14.50
2023-05-09T03:57:30.009Z,14.50
2023-05-09T04:00:07.004Z,14.50
2023-05-09T04:02:37.866Z,14.60
2023-05-09T04:05:05.651Z,14.60
2023-05-09T04:07:35.835Z,14.50
2023-05-09T04:10:06.295Z,14.50
2023-05-09T04:12:38.416Z,14.50
2023-05-09T04:15:07.686Z,14.40
2023-05-09T04:17:34.952Z,14.40
2023-05-09T04:20:02.392Z,14.50
2023-05-09T04:22:33.337Z,14.50
2023-05-09T04:25:00.493Z,14.50
2023-05-09T04:27:32.818Z,14.50
2023-05-09T04:30:00.603Z,14.40
2023-05-09T04:32:28.289Z,14.40
2023-05-09T04:34:55.672Z,14.50
2023-05-09T04:37:25.230Z,14.40
2023-05-09T04:39:52.364Z,14.50
2023-05-09T04:42:35.656Z,14.50
2023-05-09T04:45:35.986Z,14.40
2023-05-09T04:48:07.441Z,14.30
2023-05-09T04:50:37.297Z,14.30
2023-05-09T04:53:04.823Z,14.40
2023-05-09T04:55:35.932Z,14.20
2023-05-09T05:01:12.326Z,14.40
2023-05-09T05:03:55.909Z,14.50
2023-05-09T05:06:29.114Z,14.30
2023-05-09T05:08:58.075Z,14.60
2023-05-09T05:11:25.688Z,14.40
2023-05-09T05:13:54.683Z,14.50
2023-05-09T05:16:21.905Z,14.40
2023-05-09T05:21:47.665Z,14.20
2023-05-09T05:27:05.764Z,14.10
2023-05-09T05:29:37.084Z,14.20
2023-05-09T05:32:04.901Z,14.30
2023-05-09T05:34:41.345Z,14.40
2023-05-09T05:37:09.688Z,14.20
2023-05-09T05:39:37.289Z,14.20
2023-05-09T05:45:32.009Z,14.10
2023-05-09T05:48:23.821Z,14.20
2023-05-09T05:51:06.957Z,14.30
2023-05-09T06:02:57.018Z,13.60
2023-05-09T06:05:31.586Z,13.50
2023-05-09T06:11:20.415Z,13.50
2023-05-09T06:17:25.359Z,13.40
2023-05-09T06:23:03.899Z,13.50
2023-05-09T06:31:44.877Z,13.50
2023-05-09T06:43:43.737Z,13.70
2023-05-09T06:46:11.019Z,13.80
2023-05-09T06:57:42.491Z,13.90
2023-05-09T07:00:35.050Z,14.00
2023-05-09T07:03:13.948Z,14.00
2023-05-09T07:06:08.434Z,13.90
2023-05-09T07:17:56.663Z,14.20
2023-05-09T07:20:29.528Z,14.30
2023-05-09T07:26:28.727Z,14.10
2023-05-09T07:32:24.933Z,14.40
2023-05-09T07:41:14.933Z,14.80
2023-05-09T07:44:08.786Z,14.70
2023-05-09T07:49:56.697Z,14.70
2023-05-09T08:12:24.147Z,14.80
2023-05-09T08:18:39.287Z,14.80
2023-05-09T08:21:19.165Z,15.10
2023-05-09T08:24:01.991Z,15.20
2023-05-09T09:05:34.217Z,15.60
2023-05-09T09:11:51.347Z,15.70
2023-05-09T09:14:50.099Z,15.90
2023-05-09T09:17:28.725Z,16.30
2023-05-09T09:20:04.240Z,16.50
2023-05-09T09:34:04.594Z,17.70
2023-05-09T09:36:37.230Z,17.70
2023-05-09T09:52:58.483Z,19.00
2023-05-09T10:18:13.307Z,17.60
2023-05-09T10:22:15.512Z,17.40
2023-05-09T10:32:12.915Z,17.90
2023-05-09T10:39:05.918Z,18.20
2023-05-09T10:41:53.082Z,18.20
2023-05-09T11:01:45.665Z,18.40
2023-05-09T11:14:44.414Z,17.50
2023-05-09T11:33:35.376Z,17.60
2023-05-09T11:51:42.150Z,17.70
2023-05-09T12:00:12.906Z,17.50
2023-05-09T12:11:58.395Z,17.90
2023-05-09T12:21:25.672Z,17.30
2023-05-09T13:04:35.069Z,18.80
2023-05-09T13:23:34.642Z,17.60
2023-05-09T13:26:51.380Z,17.00
2023-05-09T13:39:24.587Z,18.00
2023-05-09T14:06:50.735Z,17.60
2023-05-09T14:16:33.153Z,17.00
2023-05-09T14:22:18.601Z,16.90
2023-05-09T14:28:16.502Z,16.50
2023-05-09T14:31:37.851Z,16.40
2023-05-09T14:37:17.230Z,16.90
2023-05-09T14:39:57.519Z,17.10
2023-05-09T14:53:42.997Z,17.20
2023-05-09T15:10:41.976Z,16.80
2023-05-09T15:20:53.719Z,16.30
2023-05-09T15:27:09.679Z,16.30
2023-05-09T15:52:40.963Z,15.80
2023-05-09T15:55:36.131Z,15.70
2023-05-09T16:01:25.416Z,15.70
2023-05-09T16:03:57.751Z,15.60
2023-05-09T16:09:25.182Z,15.50
2023-05-09T16:12:18.845Z,15.60
2023-05-09T16:18:16.570Z,15.50
2023-05-09T16:20:56.990Z,15.50
2023-05-09T16:23:37.694Z,15.50
2023-05-09T16:26:24.597Z,15.50
2023-05-09T16:29:17.931Z,15.60
2023-05-09T16:32:28.007Z,15.50
2023-05-09T16:35:02.977Z,15.40
2023-05-09T16:37:37.920Z,15.40
2023-05-09T16:40:26.556Z,15.40
2023-05-09T16:49:40.749Z,15.30
2023-05-09T17:07:03.778Z,15.00
2023-05-09T17:09:58.337Z,15.00
2023-05-09T17:12:45.628Z,14.90
2023-05-09T17:18:41.407Z,14.80
2023-05-09T17:21:36.090Z,14.80
2023-05-09T17:24:17.972Z,14.70
2023-05-09T17:32:52.754Z,14.60
2023-05-09T17:35:27.288Z,14.60
2023-05-09T17:38:28.912Z,14.60
2023-05-09T17:41:21.908Z,14.60
2023-05-09T17:43:57.570Z,14.60
2023-05-09T17:46:26.983Z,14.60
2023-05-09T17:57:58.394Z,14.60
2023-05-09T18:05:11.447Z,14.50
2023-05-09T18:12:08.994Z,14.40
2023-05-09T18:14:45.657Z,14.40
2023-05-09T18:17:52.192Z,14.30
2023-05-09T18:20:28.956Z,14.20
2023-05-09T18:23:40.366Z,14.30
2023-05-09T18:26:33.053Z,14.30
2023-05-09T18:35:27.861Z,14.10
2023-05-09T18:40:58.315Z,14.10
2023-05-09T18:43:41.888Z,14.20
2023-05-09T18:46:46.269Z,14.10
2023-05-09T18:49:32.071Z,14.20
2023-05-09T18:52:49.996Z,14.10
2023-05-09T18:56:28.574Z,14.20
2023-05-09T18:59:46.553Z,14.10
2023-05-09T19:10:22.340Z,14.00
2023-05-09T19:20:28.635Z,14.00
2023-05-09T19:34:33.218Z,13.90
2023-05-09T19:37:03.944Z,14.00
2023-05-09T19:39:45.821Z,14.00
2023-05-09T19:42:13.323Z,13.90
2023-05-09T19:45:08.258Z,14.10
2023-05-09T19:47:41.567Z,14.00
2023-05-09T19:50:58.028Z,14.10
2023-05-09T19:54:30.626Z,14.10
2023-05-09T19:57:09.049Z,14.10
2023-05-09T20:03:02.427Z,14.10
2023-05-09T20:20:40.677Z,14.50
2023-05-09T20:26:37.185Z,14.30
2023-05-09T20:36:50.683Z,14.40
2023-05-09T20:39:26.989Z,14.40
2023-05-09T20:42:08.305Z,14.20
2023-05-09T20:44:56.015Z,14.30
2023-05-09T20:47:34.629Z,14.20
2023-05-09T20:50:18.058Z,14.10
2023-05-09T20:52:50.468Z,14.20
2023-05-09T20:55:22.956Z,14.10
2023-05-09T20:58:01.538Z,13.90
2023-05-09T21:03:54.505Z,13.80
2023-05-09T21:06:25.419Z,13.90
2023-05-09T21:09:05.694Z,13.80
2023-05-09T21:11:37.056Z,13.70
2023-05-09T21:14:48.409Z,13.70
2023-05-09T21:20:20.159Z,13.60
2023-05-09T21:23:31.975Z,13.70
2023-05-09T21:26:04.219Z,13.70
2023-05-09T21:28:40.119Z,13.70
2023-05-09T21:34:25.518Z,13.80
2023-05-09T21:39:57.902Z,13.60
2023-05-09T21:42:35.391Z,13.60
2023-05-09T21:45:21.937Z,13.50
2023-05-09T21:48:02.904Z,13.60
2023-05-09T21:50:34.238Z,13.70
2023-05-09T21:53:21.304Z,13.70
2023-05-09T21:56:03.834Z,13.70
2023-05-09T21:58:46.929Z,13.70
2023-05-09T22:01:16.010Z,13.70
2023-05-09T22:03:52.401Z,13.80
2023-05-09T22:06:47.354Z,13.70
2023-05-09T22:15:17.771Z,13.70
2023-05-09T22:17:51.571Z,13.50
2023-05-09T22:20:20.653Z,13.60
2023-05-09T22:22:48.600Z,13.50
2023-05-09T22:25:17.978Z,13.40
2023-05-09T22:27:46.798Z,13.70
2023-05-09T22:30:15.682Z,13.80
2023-05-09T22:32:43.653Z,13.60
2023-05-09T22:38:10.669Z,13.50
2023-05-09T22:40:43.221Z,13.40
2023-05-09T22:43:11.907Z,13.50
2023-05-09T22:45:39.578Z,13.50
2023-05-09T22:51:03.876Z,13.50
2023-05-09T22:53:34.780Z,13.60
2023-05-09T22:56:06.080Z,13.50
2023-05-09T22:58:34.311Z,13.60
2023-05-09T23:01:01.740Z,13.50
2023-05-09T23:03:30.293Z,13.60
2023-05-09T23:05:57.705Z,13.60
2023-05-09T23:08:24.862Z,13.60
2023-05-09T23:10:52.251Z,13.50
2023-05-09T23:13:25.497Z,13.50
2023-05-09T23:16:01.863Z,13.40
2023-05-09T23:18:46.855Z,13.50
2023-05-09T23:21:18.040Z,13.50
2023-05-09T23:23:45.185Z,13.40
2023-05-09T23:29:12.841Z,13.30
2023-05-09T23:31:42.286Z,13.40
2023-05-09T23:34:12.022Z,13.40
2023-05-09T23:36:41.499Z,13.40
2023-05-09T23:39:11.145Z,13.20
2023-05-09T23:41:43.221Z,13.20
2023-05-09T23:44:11.243Z,13.20
2023-05-09T23:46:40.448Z,13.20
2023-05-09T23:49:09.287Z,13.40
2023-05-09T23:51:41.307Z,13.40
2023-05-09T23:54:08.826Z,13.30
2023-05-09T23:56:38.646Z,13.30
2023-05-09T23:59:05.990Z,13.30
